createdAt,value
2017-08-28T00:02:03.447Z,4.17
2017-08-28T00:04:31.791Z,3.97
2017-08-28T00:07:00.063Z,3.73
2017-08-28T00:09:29.686Z,4.03
2017-08-28T00:11:58.290Z,3.80
2017-08-28T00:14:27.357Z,4.17
2017-08-28T00:16:55.864Z,3.43
2017-08-28T00:19:25.719Z,3.87
2017-08-28T00:21:54.000Z,4.50
2017-08-28T00:24:22.279Z,4.13
2017-08-28T00:26:51.755Z,4.20
2017-08-28T00:29:20.421Z,3.83
2017-08-28T00:31:48.697Z,4.67
2017-08-28T00:34:17.031Z,4.67
2017-08-28T00:36:45.311Z,4.53
2017-08-28T00:39:14.935Z,3.80
2017-08-28T00:41:43.511Z,4.40
2017-08-28T00:44:11.799Z,3.70
2017-08-28T00:46:43.862Z,4.37
2017-08-28T00:49:12.950Z,3.77
2017-08-28T00:51:41.236Z,4.10
2017-08-28T00:54:09.556Z,4.20
2017-08-28T00:56:38.639Z,4.80
2017-08-28T00:59:08.287Z,5.03
2017-08-28T01:01:37.620Z,4.17
2017-08-28T01:04:05.932Z,5.17
2017-08-28T01:06:35.702Z,4.60
2017-08-28T01:09:04.043Z,4.40
2017-08-28T01:11:32.346Z,4.37
2017-08-28T01:14:00.625Z,4.83
2017-08-28T01:16:30.283Z,4.30
2017-08-28T01:18:58.866Z,4.77
2017-08-28T01:21:27.138Z,4.13
2017-08-28T01:23:55.468Z,5.10
2017-08-28T01:26:24.540Z,3.73
2017-08-28T01:28:53.583Z,4.40
2017-08-28T01:31:22.659Z,5.07
2017-08-28T01:33:50.970Z,4.33
2017-08-28T01:36:19.246Z,4.03
2017-08-28T01:38:47.559Z,4.87
2017-08-28T01:41:17.218Z,5.00
2017-08-28T01:43:45.358Z,4.70
2017-08-28T01:46:13.662Z,4.40
2017-08-28T01:48:42.012Z,4.10
2017-08-28T01:51:11.662Z,3.90
2017-08-28T01:53:39.880Z,4.33
2017-08-28T01:56:08.196Z,5.00
2017-08-28T01:58:36.476Z,3.90
2017-08-28T02:01:04.779Z,4.70
2017-08-28T02:03:33.107Z,4.60
2017-08-28T02:06:01.375Z,4.67
2017-08-28T02:08:30.463Z,4.30
2017-08-28T02:10:59.559Z,4.30
2017-08-28T02:13:28.599Z,4.60
2017-08-28T02:15:56.910Z,5.00
2017-08-28T02:18:26.775Z,4.63
2017-08-28T02:20:55.039Z,4.33
2017-08-28T02:23:23.346Z,4.87
2017-08-28T02:25:51.656Z,4.30
2017-08-28T02:28:19.924Z,5.07
2017-08-28T02:30:48.194Z,4.40
2017-08-28T02:33:17.866Z,4.20
2017-08-28T02:35:46.022Z,4.50
2017-08-28T02:38:14.305Z,4.43
2017-08-28T02:40:43.100Z,3.97
2017-08-28T02:43:12.727Z,5.20
2017-08-28T02:45:56.887Z,4.80
2017-08-28T02:48:56.984Z,5.07
2017-08-28T02:51:25.321Z,5.93
2017-08-28T02:53:54.942Z,4.93
2017-08-28T02:56:23.859Z,4.90
2017-08-28T02:58:52.971Z,4.23
2017-08-28T03:01:21.251Z,4.70
2017-08-28T03:03:49.523Z,5.03
2017-08-28T03:06:18.988Z,4.60
2017-08-28T03:08:47.263Z,5.50
2017-08-28T03:11:15.535Z,5.10
2017-08-28T03:13:43.850Z,4.80
2017-08-28T03:16:12.146Z,4.60
2017-08-28T03:18:40.433Z,5.23
2017-08-28T03:21:09.890Z,5.80
2017-08-28T03:23:38.204Z,5.23
2017-08-28T03:26:07.850Z,5.27
2017-08-28T03:28:36.823Z,5.10
2017-08-28T03:31:05.101Z,5.40
2017-08-28T03:33:33.372Z,5.40
2017-08-28T03:36:02.459Z,5.83
2017-08-28T03:38:30.732Z,4.47
2017-08-28T03:40:59.775Z,4.87
2017-08-28T03:43:28.868Z,4.83
2017-08-28T03:45:57.167Z,5.23
2017-08-28T03:48:25.452Z,5.17
2017-08-28T03:50:53.770Z,5.00
2017-08-28T03:53:23.175Z,5.33
2017-08-28T03:58:51.747Z,5.87
2017-08-28T04:01:20.026Z,5.60
2017-08-28T04:03:48.299Z,7.00
2017-08-28T04:06:18.138Z,5.80
2017-08-28T04:08:47.767Z,5.83
2017-08-28T04:11:17.050Z,5.00
2017-08-28T04:13:45.383Z,6.20
2017-08-28T04:16:14.443Z,5.70
2017-08-28T04:18:44.073Z,6.73
2017-08-28T04:21:12.338Z,5.40
2017-08-28T04:23:41.987Z,6.43
2017-08-28T04:26:10.543Z,6.63
2017-08-28T04:28:38.902Z,6.17
2017-08-28T04:31:08.547Z,5.90
2017-08-28T04:33:37.480Z,5.10
2017-08-28T04:36:05.818Z,5.97
2017-08-28T04:38:34.094Z,5.50
2017-08-28T04:41:03.726Z,6.50
2017-08-28T04:43:31.950Z,6.20
2017-08-28T04:46:00.223Z,5.70
2017-08-28T04:48:28.515Z,5.63
2017-08-28T04:51:00.617Z,6.60
2017-08-28T04:53:28.894Z,6.03
2017-08-28T04:55:57.570Z,6.30
2017-08-28T04:58:25.945Z,6.57
2017-08-28T05:00:54.224Z,5.50
2017-08-28T05:03:23.262Z,6.27
2017-08-28T05:05:52.402Z,6.40
2017-08-28T05:08:20.682Z,6.93
2017-08-28T05:10:48.964Z,7.30
2017-08-28T05:13:17.291Z,7.40
2017-08-28T05:15:45.583Z,8.00
2017-08-28T05:18:13.863Z,8.27
2017-08-28T05:20:42.199Z,9.03
2017-08-28T05:23:11.254Z,6.73
2017-08-28T05:25:39.964Z,7.33
2017-08-28T05:28:08.353Z,7.17
2017-08-28T05:30:37.417Z,7.07
2017-08-28T05:33:05.693Z,7.40
2017-08-28T05:35:34.047Z,6.23
2017-08-28T05:38:02.322Z,6.30
2017-08-28T05:40:30.600Z,6.20
2017-08-28T05:42:59.331Z,6.00
2017-08-28T05:45:27.608Z,5.00
2017-08-28T05:47:56.653Z,6.20
2017-08-28T05:50:25.015Z,6.90
2017-08-28T05:52:53.287Z,6.70
2017-08-28T05:55:21.571Z,6.13
2017-08-28T05:57:50.688Z,5.70
2017-08-28T06:00:18.976Z,6.17
2017-08-28T06:02:47.262Z,6.00
2017-08-28T06:05:15.599Z,6.37
2017-08-28T06:07:43.900Z,6.63
2017-08-28T06:10:13.710Z,6.07
2017-08-28T06:12:42.067Z,6.70
2017-08-28T06:15:11.892Z,6.17
2017-08-28T06:17:40.240Z,6.70
2017-08-28T06:20:08.588Z,6.67
2017-08-28T06:22:36.921Z,5.60
2017-08-28T06:25:05.199Z,5.70
2017-08-28T06:27:34.302Z,5.83
2017-08-28T06:30:02.575Z,6.03
2017-08-28T06:32:30.859Z,5.50
2017-08-28T06:34:59.219Z,5.97
2017-08-28T06:37:27.499Z,5.50
2017-08-28T06:39:56.539Z,5.20
2017-08-28T06:42:24.879Z,5.60
2017-08-28T06:44:53.175Z,6.00
2017-08-28T06:47:21.455Z,6.70
2017-08-28T06:49:49.796Z,6.60
2017-08-28T06:52:18.088Z,6.87
2017-08-28T06:54:46.415Z,6.00
2017-08-28T06:57:16.490Z,6.70
2017-08-28T06:59:45.418Z,6.53
2017-08-28T07:02:13.711Z,7.27
2017-08-28T07:04:42.054Z,6.47
2017-08-28T07:07:10.346Z,6.30
2017-08-28T07:09:38.647Z,5.70
2017-08-28T07:12:08.159Z,6.13
2017-08-28T07:14:36.473Z,7.40
2017-08-28T07:17:04.746Z,7.70
2017-08-28T07:19:33.140Z,8.53
2017-08-28T07:22:01.443Z,6.80
2017-08-28T07:24:29.725Z,8.57
2017-08-28T07:26:58.852Z,8.33
2017-08-28T07:29:27.151Z,6.60
2017-08-28T07:31:55.448Z,9.30
2017-08-28T07:34:24.178Z,8.40
2017-08-28T07:36:52.462Z,7.73
2017-08-28T07:39:20.742Z,9.70
2017-08-28T07:41:49.471Z,9.03
2017-08-28T07:44:18.524Z,9.80
2017-08-28T07:46:46.810Z,8.17
2017-08-28T07:49:15.923Z,10.80
2017-08-28T07:51:44.216Z,15.70
2017-08-28T07:54:12.528Z,12.20
2017-08-28T07:56:40.873Z,9.40
2017-08-28T07:59:10.301Z,7.43
2017-08-28T08:01:38.599Z,7.50
2017-08-28T08:04:07.516Z,8.33
2017-08-28T08:06:36.577Z,7.87
2017-08-28T08:09:04.855Z,7.40
2017-08-28T08:11:33.199Z,8.00
2017-08-28T08:14:01.484Z,6.80
2017-08-28T08:16:29.763Z,5.00
2017-08-28T08:18:58.096Z,6.40
2017-08-28T08:21:26.397Z,7.93
2017-08-28T08:23:54.683Z,5.83
2017-08-28T08:26:23.035Z,6.87
2017-08-28T08:28:51.707Z,6.67
2017-08-28T08:31:19.999Z,4.00
2017-08-28T08:33:55.466Z,4.70
2017-08-28T08:36:24.147Z,4.77
2017-08-28T08:38:52.435Z,10.70
2017-08-28T08:41:20.767Z,5.23
2017-08-28T08:43:49.050Z,4.40
2017-08-28T08:46:17.334Z,3.60
2017-08-28T08:48:46.427Z,3.80
2017-08-28T08:51:14.706Z,4.40
2017-08-28T08:53:43.392Z,4.80
2017-08-28T08:56:11.739Z,3.80
2017-08-28T08:58:40.040Z,4.30
2017-08-28T09:01:09.843Z,3.63
2017-08-28T09:03:38.971Z,3.83
2017-08-28T09:06:08.035Z,3.23
2017-08-28T09:08:36.310Z,3.80
2017-08-28T09:11:05.402Z,4.17
2017-08-28T09:13:33.684Z,3.60
2017-08-28T09:16:01.959Z,4.40
2017-08-28T09:18:31.775Z,3.87
2017-08-28T09:21:00.054Z,4.27
2017-08-28T09:23:28.727Z,5.40
2017-08-28T09:25:57.052Z,6.47
2017-08-28T09:28:26.487Z,6.93
2017-08-28T09:30:54.775Z,6.00
2017-08-28T09:33:23.094Z,5.50
2017-08-28T09:35:51.766Z,5.90
2017-08-28T09:38:20.047Z,5.60
2017-08-28T09:40:49.519Z,7.00
2017-08-28T09:43:17.811Z,5.43
2017-08-28T09:45:46.098Z,6.03
2017-08-28T09:48:15.762Z,5.13
2017-08-28T09:50:45.271Z,5.57
2017-08-28T09:53:14.770Z,5.50
2017-08-28T09:55:43.741Z,4.77
2017-08-28T09:58:12.035Z,4.27
2017-08-28T10:00:41.836Z,4.37
2017-08-28T10:03:10.192Z,11.37
2017-08-28T10:05:39.366Z,10.87
2017-08-28T10:08:08.068Z,8.40
2017-08-28T10:10:36.414Z,8.63
2017-08-28T10:13:04.690Z,7.67
2017-08-28T10:15:34.363Z,4.90
2017-08-28T10:18:02.954Z,4.93
2017-08-28T10:20:31.231Z,5.77
2017-08-28T10:22:59.507Z,9.43
2017-08-28T10:25:27.842Z,4.90
2017-08-28T10:27:56.896Z,4.87
2017-08-28T10:30:25.941Z,4.80
2017-08-28T10:32:55.030Z,4.53
2017-08-28T10:35:23.307Z,3.67
2017-08-28T10:37:52.342Z,5.13
2017-08-28T10:40:21.443Z,5.17
2017-08-28T10:42:49.723Z,4.70
2017-08-28T10:45:18.003Z,5.17
2017-08-28T10:47:46.334Z,6.10
2017-08-28T10:50:14.610Z,4.90
2017-08-28T10:52:44.031Z,5.73
2017-08-28T10:55:12.375Z,4.47
2017-08-28T10:57:40.675Z,4.80
2017-08-28T11:00:08.971Z,4.40
2017-08-28T11:02:38.946Z,5.20
2017-08-28T11:05:07.242Z,4.90
2017-08-28T11:07:36.876Z,6.00
2017-08-28T11:10:05.847Z,5.43
2017-08-28T11:12:34.903Z,6.33
2017-08-28T11:15:03.184Z,6.70
2017-08-28T11:17:31.989Z,6.50
2017-08-28T11:20:01.407Z,6.53
2017-08-28T11:22:29.686Z,8.70
2017-08-28T11:24:58.031Z,6.90
2017-08-28T11:27:27.810Z,6.10
2017-08-28T11:29:56.120Z,8.97
2017-08-28T11:32:24.452Z,9.00
2017-08-28T11:34:52.744Z,7.03
2017-08-28T11:37:22.166Z,7.10
2017-08-28T11:39:50.487Z,7.27
2017-08-28T11:42:18.768Z,5.17
2017-08-28T11:44:47.039Z,4.70
2017-08-28T11:47:15.370Z,4.90
2017-08-28T11:49:44.786Z,5.20
2017-08-28T11:52:14.569Z,6.70
2017-08-28T11:54:42.915Z,6.30
2017-08-28T11:57:12.561Z,6.43
2017-08-28T11:59:41.134Z,6.57
2017-08-28T12:02:09.483Z,6.60
2017-08-28T12:04:39.301Z,6.83
2017-08-28T12:07:07.602Z,6.77
2017-08-28T12:09:35.931Z,8.23
2017-08-28T12:12:04.219Z,9.10
2017-08-28T12:14:33.630Z,8.10
2017-08-28T12:17:01.963Z,8.70
2017-08-28T12:19:30.244Z,7.33
2017-08-28T12:21:58.527Z,8.33
2017-08-28T12:24:26.871Z,9.60
2017-08-28T12:26:55.150Z,7.60
2017-08-28T12:29:24.195Z,7.37
2017-08-28T12:31:53.298Z,8.30
2017-08-28T12:34:21.578Z,8.00
2017-08-28T12:36:50.624Z,6.97
2017-08-28T12:39:18.946Z,8.83
2017-08-28T12:41:47.223Z,7.70
2017-08-28T12:44:15.496Z,7.17
2017-08-28T12:46:45.351Z,8.40
2017-08-28T12:49:13.640Z,8.60
2017-08-28T12:51:41.939Z,8.27
2017-08-28T12:54:10.290Z,7.50
2017-08-28T12:56:39.439Z,7.57
2017-08-28T12:59:08.267Z,9.03
2017-08-28T13:01:36.635Z,8.37
2017-08-28T13:04:06.433Z,9.23
2017-08-28T13:06:34.711Z,7.60
2017-08-28T13:09:03.072Z,7.90
2017-08-28T13:11:32.114Z,7.70
2017-08-28T13:14:01.747Z,8.00
2017-08-28T13:16:30.718Z,7.00
2017-08-28T13:19:00.341Z,6.57
2017-08-28T13:21:28.511Z,7.97
2017-08-28T13:23:56.871Z,7.17
2017-08-28T13:26:25.149Z,7.97
2017-08-28T13:28:55.691Z,7.30
2017-08-28T13:31:23.928Z,6.70
2017-08-28T13:33:53.378Z,7.77
2017-08-28T13:36:21.644Z,7.03
2017-08-28T13:38:49.975Z,6.43
2017-08-28T13:41:18.254Z,6.93
2017-08-28T13:43:46.531Z,7.83
2017-08-28T13:46:16.378Z,6.60
2017-08-28T13:48:44.660Z,7.23
2017-08-28T13:51:12.945Z,7.70
2017-08-28T13:53:42.045Z,8.07
2017-08-28T13:56:10.360Z,7.93
2017-08-28T13:58:39.462Z,7.63
2017-08-28T14:01:09.083Z,7.00
2017-08-28T14:03:38.503Z,6.80
2017-08-28T14:06:08.712Z,7.93
2017-08-28T14:08:36.926Z,8.67
2017-08-28T14:11:05.659Z,6.77
2017-08-28T14:13:35.069Z,6.67
2017-08-28T14:16:03.424Z,8.13
2017-08-28T14:18:31.709Z,7.50
2017-08-28T14:20:59.996Z,8.50
2017-08-28T14:23:29.870Z,6.10
2017-08-28T14:25:58.160Z,8.23
2017-08-28T14:28:27.790Z,7.73
2017-08-28T14:30:56.390Z,7.83
2017-08-28T14:33:24.671Z,7.40
2017-08-28T14:35:52.947Z,7.97
2017-08-28T14:38:22.626Z,8.33
2017-08-28T14:40:52.299Z,10.00
2017-08-28T14:43:20.829Z,8.40
2017-08-28T14:45:50.667Z,7.90
2017-08-28T14:48:18.955Z,8.90
2017-08-28T14:50:48.315Z,7.87
2017-08-28T14:53:18.454Z,8.03
2017-08-28T14:55:48.423Z,7.70
2017-08-28T14:58:17.176Z,7.70
2017-08-28T15:00:46.283Z,7.90
2017-08-28T15:03:14.558Z,7.07
2017-08-28T15:05:43.612Z,7.37
2017-08-28T15:08:11.953Z,7.90
2017-08-28T15:10:42.562Z,7.87
2017-08-28T15:13:11.616Z,7.73
2017-08-28T15:15:40.728Z,8.67
2017-08-28T15:18:09.071Z,8.63
2017-08-28T15:20:39.524Z,8.70
2017-08-28T15:23:09.046Z,9.40
2017-08-28T15:25:38.838Z,8.90
2017-08-28T15:28:08.560Z,8.00
2017-08-28T15:30:36.902Z,7.83
2017-08-28T15:33:06.803Z,7.47
2017-08-28T15:35:35.128Z,8.10
2017-08-28T15:38:04.968Z,8.63
2017-08-28T15:40:33.321Z,8.30
2017-08-28T15:43:01.755Z,8.60
2017-08-28T15:45:30.102Z,9.80
2017-08-28T15:47:59.903Z,8.87
2017-08-28T15:50:28.260Z,8.50
2017-08-28T15:52:57.379Z,8.23
2017-08-28T15:55:25.694Z,8.10
2017-08-28T15:57:54.024Z,7.97
2017-08-28T16:00:22.390Z,8.07
2017-08-28T16:02:50.716Z,8.50
2017-08-28T16:05:20.155Z,9.90
2017-08-28T16:07:50.722Z,8.70
2017-08-28T16:10:19.660Z,9.57
2017-08-28T16:12:48.395Z,9.37
2017-08-28T16:15:17.439Z,8.30
2017-08-28T16:17:46.496Z,8.27
2017-08-28T16:20:14.809Z,7.70
2017-08-28T16:22:43.093Z,8.57
2017-08-28T16:25:11.379Z,9.10
2017-08-28T16:27:39.757Z,9.60
2017-08-28T16:30:08.146Z,8.37
2017-08-28T16:32:37.202Z,8.87
2017-08-28T16:35:06.318Z,8.80
2017-08-28T16:37:34.599Z,9.57
2017-08-28T16:40:02.891Z,9.53
2017-08-28T16:42:32.723Z,9.00
2017-08-28T16:45:02.576Z,8.37
2017-08-28T16:47:32.039Z,8.30
2017-08-28T16:50:00.358Z,8.80
2017-08-28T16:52:28.659Z,7.37
2017-08-28T16:54:58.318Z,9.07
2017-08-28T16:57:26.940Z,8.97
2017-08-28T16:59:56.359Z,8.20
2017-08-28T17:02:24.736Z,8.20
2017-08-28T17:04:53.083Z,8.43
2017-08-28T17:07:21.372Z,8.90
2017-08-28T17:09:49.661Z,9.43
2017-08-28T17:12:18.325Z,8.80
2017-08-28T17:14:48.108Z,8.00
2017-08-28T17:17:16.391Z,9.53
2017-08-28T17:19:46.243Z,10.67
2017-08-28T17:22:15.883Z,8.73
2017-08-28T17:24:45.560Z,8.90
2017-08-28T17:27:13.900Z,9.50
2017-08-28T17:29:42.246Z,9.00
2017-08-28T17:32:12.052Z,9.23
2017-08-28T17:34:40.383Z,8.63
2017-08-28T17:37:08.724Z,10.30
2017-08-28T17:39:38.184Z,8.47
2017-08-28T17:42:06.978Z,9.07
2017-08-28T17:44:36.466Z,8.53
2017-08-28T17:47:04.768Z,8.50
2017-08-28T17:49:33.123Z,10.03
2017-08-28T17:52:01.411Z,9.97
2017-08-28T17:54:29.699Z,11.70
2017-08-28T17:57:01.501Z,10.30
2017-08-28T17:59:31.469Z,10.30
2017-08-28T18:02:00.609Z,9.73
2017-08-28T18:04:30.452Z,9.53
2017-08-28T18:06:59.495Z,10.57
2017-08-28T18:09:29.135Z,9.73
2017-08-28T18:11:57.755Z,9.87
2017-08-28T18:14:26.032Z,10.43
2017-08-28T18:16:55.672Z,10.23
2017-08-28T18:19:24.280Z,10.63
2017-08-28T18:21:52.563Z,10.20
2017-08-28T18:24:20.851Z,9.93
2017-08-28T18:26:49.186Z,10.80
2017-08-28T18:29:17.470Z,9.37
2017-08-28T18:31:47.316Z,11.23
2017-08-28T18:34:15.674Z,11.30
2017-08-28T18:36:45.465Z,11.80
2017-08-28T18:39:13.770Z,10.17
2017-08-28T18:41:42.127Z,10.70
2017-08-28T18:44:11.958Z,9.93
2017-08-28T18:46:41.615Z,9.73
2017-08-28T18:49:10.650Z,11.13
2017-08-28T18:51:39.772Z,10.57
2017-08-28T18:54:09.458Z,12.00
2017-08-28T18:56:38.575Z,10.20
2017-08-28T18:59:08.020Z,11.23
2017-08-28T19:01:36.311Z,10.30
2017-08-28T19:04:05.967Z,10.40
2017-08-28T19:06:34.253Z,10.07
2017-08-28T19:09:02.536Z,10.00
2017-08-28T19:11:30.875Z,11.27
2017-08-28T19:13:59.159Z,9.70
2017-08-28T19:16:27.452Z,10.77
2017-08-28T19:18:55.796Z,10.20
2017-08-28T19:21:25.432Z,8.63
2017-08-28T19:23:54.962Z,8.10
2017-08-28T19:26:23.932Z,8.73
2017-08-28T19:28:53.571Z,9.20
2017-08-28T19:31:23.276Z,8.47
2017-08-28T19:33:54.368Z,8.97
2017-08-28T19:36:23.499Z,8.50
2017-08-28T19:38:53.131Z,8.87
2017-08-28T19:41:21.719Z,8.27
2017-08-28T19:43:49.990Z,8.60
2017-08-28T19:46:18.266Z,7.83
2017-08-28T19:48:46.599Z,7.63
2017-08-28T19:51:14.892Z,8.40
2017-08-28T19:53:43.180Z,8.20
2017-08-28T19:56:13.068Z,7.47
2017-08-28T19:58:41.408Z,8.33
2017-08-28T20:01:09.786Z,8.33
2017-08-28T20:03:39.667Z,8.23
2017-08-28T20:06:09.361Z,7.77
2017-08-28T20:08:37.963Z,7.93
2017-08-28T20:11:07.078Z,8.43
2017-08-28T20:13:35.364Z,7.97
2017-08-28T20:16:05.151Z,7.83
2017-08-28T20:18:33.487Z,8.50
2017-08-28T20:21:01.776Z,9.20
2017-08-28T20:23:38.837Z,7.50
2017-08-28T20:26:09.636Z,8.17
2017-08-28T20:28:37.972Z,8.30
2017-08-28T20:31:06.297Z,8.40
2017-08-28T20:33:34.566Z,8.70
2017-08-28T20:36:02.969Z,8.50
2017-08-28T20:38:31.331Z,7.60
2017-08-28T20:40:59.610Z,8.73
2017-08-28T20:43:29.083Z,8.20
2017-08-28T20:45:57.402Z,8.00
2017-08-28T20:48:25.691Z,8.80
2017-08-28T20:50:54.000Z,9.03
2017-08-28T20:53:23.999Z,8.50
2017-08-28T20:55:52.152Z,8.00
2017-08-28T20:58:21.194Z,8.10
2017-08-28T21:00:49.524Z,9.20
2017-08-28T21:03:17.811Z,7.43
2017-08-28T21:05:46.099Z,9.80
2017-08-28T21:08:14.424Z,8.70
2017-08-28T21:10:42.739Z,8.93
2017-08-28T21:13:12.214Z,8.30
2017-08-28T21:15:40.614Z,7.83
2017-08-28T21:18:08.918Z,9.50
2017-08-28T21:20:38.562Z,8.40
2017-08-28T21:23:06.786Z,9.23
2017-08-28T21:25:35.066Z,8.77
2017-08-28T21:28:03.339Z,8.77
2017-08-28T21:30:31.678Z,8.23
2017-08-28T21:33:00.718Z,8.17
2017-08-28T21:35:29.919Z,8.70
2017-08-28T21:37:59.534Z,9.40
2017-08-28T21:40:29.335Z,9.47
2017-08-28T21:42:57.639Z,9.30
2017-08-28T21:45:25.972Z,8.30
2017-08-28T21:47:55.405Z,9.33
2017-08-28T21:50:23.687Z,9.77
2017-08-28T21:52:52.021Z,9.33
2017-08-28T21:55:20.307Z,9.50
2017-08-28T21:57:48.591Z,8.53
2017-08-28T22:00:17.376Z,10.70
2017-08-28T22:02:48.733Z,9.27
2017-08-28T22:05:17.088Z,10.40
2017-08-28T22:07:46.517Z,10.03
2017-08-28T22:10:14.803Z,10.17
2017-08-28T22:12:43.936Z,9.33
2017-08-28T22:15:12.627Z,10.73
2017-08-28T22:17:40.929Z,10.33
2017-08-28T22:20:09.261Z,10.00
2017-08-28T22:22:37.915Z,9.90
2017-08-28T22:25:07.338Z,10.07
2017-08-28T22:27:35.736Z,9.80
2017-08-28T22:30:04.021Z,10.27
2017-08-28T22:32:32.315Z,11.40
2017-08-28T22:35:01.810Z,10.57
2017-08-28T22:37:30.096Z,12.00
2017-08-28T22:39:58.607Z,11.20
2017-08-28T22:42:27.068Z,10.10
2017-08-28T22:44:56.527Z,17.27
2017-08-28T22:50:25.257Z,10.30
2017-08-28T22:52:54.894Z,9.80
2017-08-28T22:55:23.462Z,10.57
2017-08-28T22:57:51.796Z,11.40
2017-08-28T23:00:21.818Z,12.00
2017-08-28T23:02:50.908Z,11.83
2017-08-28T23:05:19.230Z,11.50
2017-08-28T23:07:47.910Z,11.40
2017-08-28T23:10:17.372Z,10.50
2017-08-28T23:12:45.695Z,11.90
2017-08-28T23:15:15.899Z,12.17
2017-08-28T23:17:44.227Z,12.80
2017-08-28T23:20:13.720Z,12.60
2017-08-28T23:22:42.031Z,12.17
2017-08-28T23:25:10.381Z,12.70
2017-08-28T23:27:38.803Z,12.90
2017-08-28T23:30:08.688Z,12.73
2017-08-28T23:32:37.028Z,13.40
2017-08-28T23:35:05.376Z,14.30
2017-08-28T23:37:35.114Z,12.67
2017-08-28T23:40:04.620Z,13.23
2017-08-28T23:42:34.290Z,13.60
2017-08-28T23:45:02.858Z,14.27
2017-08-28T23:47:31.151Z,13.60
2017-08-28T23:50:01.372Z,16.33
2017-08-28T23:52:29.661Z,16.23
2017-08-28T23:54:57.973Z,15.80
2017-08-28T23:57:26.338Z,17.83
2017-08-28T23:59:55.391Z,17.53
